createdAt,value
2023-06-29T00:02:10.516Z,15.63
2023-06-29T00:04:37.263Z,14.98
2023-06-29T00:07:04.502Z,16.33
2023-06-29T00:09:31.242Z,14.88
2023-06-29T00:11:57.884Z,14.85
2023-06-29T00:14:24.469Z,14.60
2023-06-29T00:16:52.458Z,16.13
2023-06-29T00:19:19.211Z,17.13
2023-06-29T00:21:45.899Z,17.38
2023-06-29T00:24:12.609Z,17.65
2023-06-29T00:26:39.593Z,16.85
2023-06-29T00:29:06.617Z,17.25
2023-06-29T00:31:35.975Z,16.08
2023-06-29T00:34:04.146Z,17.02
2023-06-29T00:36:32.886Z,17.08
2023-06-29T00:39:00.002Z,18.38
2023-06-29T00:41:26.682Z,15.50
2023-06-29T00:43:53.395Z,15.85
2023-06-29T00:46:21.186Z,16.83
2023-06-29T00:48:48.459Z,17.08
2023-06-29T00:51:16.782Z,17.60
2023-06-29T00:53:44.244Z,18.77
2023-06-29T00:56:11.009Z,17.98
2023-06-29T00:58:37.677Z,18.80
2023-06-29T01:01:05.164Z,18.42
2023-06-29T01:03:33.553Z,18.92
2023-06-29T01:06:10.695Z,18.95
2023-06-29T01:08:43.896Z,18.63
2023-06-29T01:11:11.942Z,18.63
2023-06-29T01:13:41.550Z,18.83
2023-06-29T01:16:14.739Z,18.98
2023-06-29T01:18:44.883Z,18.77
2023-06-29T01:21:13.390Z,19.60
2023-06-29T01:23:43.777Z,19.88
2023-06-29T01:26:13.576Z,19.23
2023-06-29T01:28:40.309Z,18.98
2023-06-29T01:31:09.904Z,19.35
2023-06-29T01:33:36.743Z,18.88
2023-06-29T01:36:08.231Z,18.67
2023-06-29T01:38:44.721Z,18.85
2023-06-29T01:41:16.107Z,19.15
2023-06-29T01:43:43.969Z,21.55
2023-06-29T01:46:11.378Z,18.95
2023-06-29T01:48:39.330Z,19.95
2023-06-29T01:51:06.796Z,19.45
2023-06-29T01:53:36.122Z,19.08
2023-06-29T01:56:04.358Z,19.73
2023-06-29T01:58:32.441Z,19.80
2023-06-29T02:00:59.204Z,19.48
2023-06-29T02:03:26.059Z,19.75
2023-06-29T02:05:52.852Z,19.05
2023-06-29T02:08:19.569Z,20.02
2023-06-29T02:10:46.332Z,18.80
2023-06-29T02:13:14.673Z,19.83
2023-06-29T02:15:43.132Z,19.42
2023-06-29T02:18:10.034Z,19.27
2023-06-29T02:20:36.886Z,19.65
2023-06-29T02:23:03.704Z,18.90
2023-06-29T02:25:30.376Z,18.95
2023-06-29T02:27:56.956Z,20.40
2023-06-29T02:30:23.848Z,19.70
2023-06-29T02:32:52.670Z,20.15
2023-06-29T02:35:19.444Z,20.05
2023-06-29T02:37:46.160Z,19.38
2023-06-29T02:40:13.507Z,19.77
2023-06-29T02:42:41.778Z,18.90
2023-06-29T02:45:11.256Z,19.85
2023-06-29T02:47:38.773Z,20.35
2023-06-29T02:50:08.853Z,20.17
2023-06-29T02:52:46.398Z,20.52
2023-06-29T02:55:13.286Z,19.98
2023-06-29T02:57:39.958Z,20.48
2023-06-29T03:00:08.459Z,20.27
2023-06-29T03:02:35.230Z,19.67
2023-06-29T03:05:02.136Z,20.33
2023-06-29T03:07:30.519Z,19.80
2023-06-29T03:09:57.358Z,20.10
2023-06-29T03:12:24.039Z,19.83
2023-06-29T03:14:50.744Z,19.13
2023-06-29T03:17:17.542Z,20.08
2023-06-29T03:19:44.329Z,19.30
2023-06-29T03:22:11.013Z,19.73
2023-06-29T03:24:39.070Z,20.33
2023-06-29T03:27:06.517Z,20.65
2023-06-29T03:29:33.201Z,20.92
2023-06-29T03:32:00.013Z,20.73
2023-06-29T03:34:26.664Z,21.00
2023-06-29T03:36:53.417Z,20.08
2023-06-29T03:39:20.068Z,20.52
2023-06-29T03:41:48.134Z,21.05
2023-06-29T03:44:14.917Z,19.85
2023-06-29T03:46:41.627Z,22.25
2023-06-29T03:49:08.360Z,20.98
2023-06-29T03:51:35.016Z,21.02
2023-06-29T03:54:01.624Z,19.63
2023-06-29T03:56:28.294Z,20.67
2023-06-29T03:58:56.312Z,20.58
2023-06-29T04:01:23.044Z,20.23
2023-06-29T04:03:50.822Z,19.73
2023-06-29T04:06:17.549Z,20.88
2023-06-29T04:08:44.254Z,20.23
2023-06-29T04:11:12.555Z,20.77
2023-06-29T04:13:39.415Z,20.88
2023-06-29T04:16:07.765Z,19.50
2023-06-29T04:18:35.747Z,19.65
2023-06-29T04:21:02.457Z,20.50
2023-06-29T04:23:29.059Z,20.13
2023-06-29T04:25:55.671Z,20.42
2023-06-29T04:28:22.313Z,21.05
2023-06-29T04:30:49.091Z,20.38
2023-06-29T04:33:17.155Z,20.73
2023-06-29T04:35:45.094Z,20.10
2023-06-29T04:38:12.623Z,21.10
2023-06-29T04:40:39.439Z,21.50
2023-06-29T04:43:06.335Z,20.90
2023-06-29T04:45:33.357Z,21.05
2023-06-29T04:48:00.933Z,21.27
2023-06-29T04:50:30.652Z,20.65
2023-06-29T04:52:58.520Z,20.98
2023-06-29T04:55:25.816Z,19.73
2023-06-29T04:57:52.792Z,20.58
2023-06-29T05:00:19.773Z,21.17
2023-06-29T05:02:46.870Z,20.40
2023-06-29T05:05:13.574Z,21.55
2023-06-29T05:07:41.622Z,19.67
2023-06-29T05:10:08.676Z,20.40
2023-06-29T05:12:35.424Z,20.73
2023-06-29T05:15:02.225Z,20.40
2023-06-29T05:17:28.994Z,19.90
2023-06-29T05:19:55.665Z,20.33
2023-06-29T05:22:22.388Z,19.88
2023-06-29T05:24:50.413Z,19.05
2023-06-29T05:27:17.099Z,19.40
2023-06-29T05:29:43.880Z,20.85
2023-06-29T05:32:10.587Z,19.52
2023-06-29T05:34:37.284Z,19.60
2023-06-29T05:37:04.390Z,19.35
2023-06-29T05:39:31.031Z,19.80
2023-06-29T05:41:59.421Z,19.15
2023-06-29T05:44:26.074Z,19.92
2023-06-29T05:46:52.718Z,18.08
2023-06-29T05:49:19.430Z,18.08
2023-06-29T05:51:46.144Z,18.92
2023-06-29T05:54:12.899Z,19.23
2023-06-29T05:56:39.591Z,18.92
2023-06-29T05:59:07.563Z,19.77
2023-06-29T06:01:34.253Z,18.27
2023-06-29T06:04:01.031Z,20.70
2023-06-29T06:06:27.747Z,19.42
2023-06-29T06:08:54.451Z,19.77
2023-06-29T06:11:21.122Z,21.15
2023-06-29T06:13:47.824Z,19.25
2023-06-29T06:16:15.976Z,21.02
2023-06-29T06:18:42.651Z,19.83
2023-06-29T06:21:09.407Z,20.58
2023-06-29T06:23:36.252Z,19.40
2023-06-29T06:26:03.049Z,20.60
2023-06-29T06:28:29.675Z,19.48
2023-06-29T06:30:56.412Z,18.92
2023-06-29T06:33:24.504Z,20.77
2023-06-29T06:35:51.260Z,20.02
2023-06-29T06:38:17.889Z,19.67
2023-06-29T06:40:44.780Z,17.77
2023-06-29T06:43:11.695Z,19.77
2023-06-29T06:45:38.402Z,18.73
2023-06-29T06:48:05.461Z,19.98
2023-06-29T06:50:33.574Z,19.73
2023-06-29T06:53:00.792Z,19.33
2023-06-29T06:55:27.451Z,19.75
2023-06-29T06:57:54.187Z,20.30
2023-06-29T07:00:21.084Z,21.95
2023-06-29T07:02:47.763Z,19.88
2023-06-29T07:05:14.659Z,21.17
2023-06-29T07:07:42.814Z,19.80
2023-06-29T07:10:10.317Z,20.98
2023-06-29T07:12:37.016Z,19.95
2023-06-29T07:15:04.464Z,19.30
2023-06-29T07:17:31.236Z,19.27
2023-06-29T07:24:59.231Z,20.58
2023-06-29T07:27:25.871Z,20.38
2023-06-29T07:29:52.635Z,19.38
2023-06-29T07:32:19.318Z,18.38
2023-06-29T07:34:46.023Z,19.10
2023-06-29T07:37:12.713Z,18.38
2023-06-29T07:39:39.502Z,19.98
2023-06-29T07:42:07.597Z,18.73
2023-06-29T07:44:34.372Z,17.40
2023-06-29T07:47:01.160Z,17.73
2023-06-29T07:49:28.046Z,17.05
2023-06-29T07:51:54.862Z,18.17
2023-06-29T07:54:21.528Z,17.33
2023-06-29T07:59:19.241Z,17.15
2023-06-29T08:01:48.398Z,16.65
2023-06-29T08:04:15.179Z,17.35
2023-06-29T08:06:50.376Z,16.35
2023-06-29T08:09:18.344Z,16.92
2023-06-29T08:11:45.035Z,17.73
2023-06-29T08:14:11.715Z,16.25
2023-06-29T08:16:39.809Z,16.67
2023-06-29T08:19:06.730Z,16.48
2023-06-29T08:21:33.521Z,17.00
2023-06-29T08:24:00.144Z,17.77
2023-06-29T08:26:27.137Z,16.63
2023-06-29T08:28:53.860Z,17.60
2023-06-29T08:31:20.735Z,16.60
2023-06-29T08:33:48.853Z,15.52
2023-06-29T08:36:15.728Z,14.65
2023-06-29T08:38:44.894Z,14.25
2023-06-29T08:41:11.676Z,13.85
2023-06-29T08:43:38.394Z,14.40
2023-06-29T08:46:05.124Z,13.77
2023-06-29T08:48:32.921Z,13.13
2023-06-29T08:51:04.148Z,12.57
2023-06-29T08:53:31.267Z,12.85
2023-06-29T08:55:58.769Z,14.32
2023-06-29T08:58:26.869Z,13.10
2023-06-29T09:00:54.701Z,13.70
2023-06-29T09:03:23.581Z,13.18
2023-06-29T09:05:51.368Z,13.40
2023-06-29T09:08:21.049Z,12.73
2023-06-29T09:10:48.017Z,13.38
2023-06-29T09:13:15.006Z,13.27
2023-06-29T09:15:41.721Z,13.00
2023-06-29T09:18:08.765Z,13.43
2023-06-29T09:20:36.290Z,13.35
2023-06-29T09:23:03.640Z,13.27
2023-06-29T09:25:35.544Z,13.77
2023-06-29T09:28:04.062Z,13.52
2023-06-29T09:30:35.753Z,13.85
2023-06-29T09:35:32.282Z,13.00
2023-06-29T09:38:01.924Z,13.60
2023-06-29T09:40:28.589Z,13.20
2023-06-29T09:42:56.611Z,13.13
2023-06-29T09:45:28.178Z,12.70
2023-06-29T09:50:24.788Z,12.07
2023-06-29T09:52:53.996Z,12.18
2023-06-29T09:55:29.735Z,12.27
2023-06-29T09:57:59.434Z,12.02
2023-06-29T10:00:26.152Z,11.32
2023-06-29T10:02:52.846Z,12.18
2023-06-29T10:05:19.637Z,11.52
2023-06-29T10:07:46.632Z,11.30
2023-06-29T10:10:16.215Z,12.40
2023-06-29T10:12:42.995Z,12.13
2023-06-29T10:15:14.971Z,11.48
2023-06-29T10:17:47.837Z,11.60
2023-06-29T10:20:17.141Z,11.73
2023-06-29T10:22:44.642Z,12.43
2023-06-29T10:25:15.300Z,10.95
2023-06-29T10:27:42.987Z,12.43
2023-06-29T10:30:12.106Z,11.85
2023-06-29T10:32:40.566Z,11.05
2023-06-29T10:35:10.271Z,10.82
2023-06-29T10:37:38.233Z,10.50
2023-06-29T10:40:13.681Z,10.65
2023-06-29T10:42:56.651Z,11.20
2023-06-29T10:45:38.731Z,11.30
2023-06-29T10:48:28.040Z,11.00
2023-06-29T10:51:06.922Z,11.68
2023-06-29T10:53:35.606Z,12.20
2023-06-29T10:56:02.265Z,11.82
2023-06-29T10:58:36.174Z,11.75
2023-06-29T11:01:04.146Z,11.85
2023-06-29T11:03:31.019Z,12.70
2023-06-29T11:05:57.712Z,12.98
2023-06-29T11:08:25.620Z,12.50
2023-06-29T11:10:52.710Z,12.68
2023-06-29T11:13:20.443Z,13.02
2023-06-29T11:15:52.653Z,13.02
2023-06-29T11:18:20.989Z,13.25
2023-06-29T11:20:47.778Z,13.15
2023-06-29T11:23:14.771Z,12.77
2023-06-29T11:25:41.506Z,12.52
2023-06-29T11:28:08.197Z,13.07
2023-06-29T11:30:38.943Z,14.60
2023-06-29T11:33:16.395Z,13.83
2023-06-29T11:35:52.589Z,13.40
2023-06-29T11:38:19.740Z,13.98
2023-06-29T11:40:46.468Z,13.68
2023-06-29T11:43:15.824Z,14.30
2023-06-29T11:45:42.513Z,13.55
2023-06-29T11:48:09.233Z,13.57
2023-06-29T11:50:36.110Z,14.35
2023-06-29T11:53:04.349Z,13.32
2023-06-29T11:55:31.003Z,12.15
2023-06-29T11:57:57.606Z,12.45
2023-06-29T12:00:30.400Z,12.75
2023-06-29T12:02:57.772Z,12.52
2023-06-29T12:05:28.235Z,12.10
2023-06-29T12:07:55.328Z,11.98
2023-06-29T12:10:24.322Z,12.23
2023-06-29T12:12:52.530Z,13.02
2023-06-29T12:15:20.545Z,12.82
2023-06-29T12:20:20.226Z,13.43
2023-06-29T12:22:48.206Z,11.85
2023-06-29T12:25:16.221Z,11.00
2023-06-29T12:27:45.599Z,12.10
2023-06-29T12:30:13.487Z,12.82
2023-06-29T12:32:40.273Z,12.93
2023-06-29T12:35:07.351Z,12.07
2023-06-29T12:37:34.228Z,11.98
2023-06-29T12:40:00.940Z,13.02
2023-06-29T12:42:27.540Z,12.52
2023-06-29T12:44:55.578Z,12.00
2023-06-29T12:47:22.337Z,11.55
2023-06-29T12:49:48.991Z,11.32
2023-06-29T12:52:15.832Z,11.80
2023-06-29T12:54:42.502Z,12.00
2023-06-29T12:57:09.171Z,13.75
2023-06-29T12:59:35.823Z,13.52
2023-06-29T13:02:04.191Z,14.07
2023-06-29T13:04:33.255Z,13.43
2023-06-29T13:07:01.794Z,13.53
2023-06-29T13:09:29.472Z,14.13
2023-06-29T13:11:56.206Z,14.32
2023-06-29T13:14:22.787Z,14.00
2023-06-29T13:16:49.559Z,14.45
2023-06-29T13:19:17.836Z,13.48
2023-06-29T13:21:44.595Z,14.82
2023-06-29T13:24:11.417Z,15.15
2023-06-29T13:26:38.172Z,15.57
2023-06-29T13:29:04.895Z,15.60
2023-06-29T13:31:31.628Z,15.82
2023-06-29T13:33:58.381Z,16.23
2023-06-29T13:36:26.541Z,15.38
2023-06-29T13:38:53.099Z,16.38
2023-06-29T13:41:33.825Z,16.17
2023-06-29T13:44:00.506Z,16.23
2023-06-29T13:46:27.178Z,16.38
2023-06-29T13:48:53.822Z,16.85
2023-06-29T13:51:20.425Z,17.05
2023-06-29T13:53:48.982Z,16.38
2023-06-29T13:56:15.788Z,16.75
2023-06-29T13:58:42.482Z,16.45
2023-06-29T14:01:09.133Z,17.48
2023-06-29T14:03:35.911Z,17.52
2023-06-29T14:06:02.654Z,17.50
2023-06-29T14:08:29.292Z,18.27
2023-06-29T14:10:57.299Z,18.38
2023-06-29T14:13:23.972Z,18.45
2023-06-29T14:15:50.639Z,19.05
2023-06-29T14:18:17.311Z,18.42
2023-06-29T14:20:44.170Z,18.63
2023-06-29T14:23:10.774Z,19.05
2023-06-29T14:25:37.596Z,19.95
2023-06-29T14:28:05.645Z,19.38
2023-06-29T14:30:32.313Z,17.73
2023-06-29T14:32:59.046Z,19.20
2023-06-29T14:35:31.958Z,19.40
2023-06-29T14:38:13.237Z,19.13
2023-06-29T14:40:41.247Z,20.40
2023-06-29T14:43:09.340Z,19.92
2023-06-29T14:45:36.004Z,20.58
2023-06-29T14:48:02.745Z,19.75
2023-06-29T14:50:29.371Z,21.27
2023-06-29T14:52:56.080Z,19.88
2023-06-29T14:55:22.686Z,20.50
2023-06-29T14:57:50.642Z,21.05
2023-06-29T15:00:19.893Z,20.55
2023-06-29T15:02:46.799Z,20.35
2023-06-29T15:05:13.621Z,19.50
2023-06-29T15:07:40.286Z,18.83
2023-06-29T15:10:07.981Z,19.48
2023-06-29T15:12:34.726Z,20.25
2023-06-29T15:15:01.494Z,20.55
2023-06-29T15:17:29.626Z,21.00
2023-06-29T15:19:56.581Z,20.33
2023-06-29T15:22:23.315Z,20.20
2023-06-29T15:24:49.981Z,19.58
2023-06-29T15:27:16.712Z,19.50
2023-06-29T15:29:43.355Z,20.48
2023-06-29T15:32:10.231Z,20.13
2023-06-29T15:34:38.272Z,20.10
2023-06-29T15:37:05.577Z,20.48
2023-06-29T15:39:32.235Z,21.13
2023-06-29T15:41:59.151Z,20.55
2023-06-29T15:44:25.751Z,18.65
2023-06-29T15:46:54.136Z,17.95
2023-06-29T15:49:21.311Z,17.48
2023-06-29T15:51:50.499Z,19.17
2023-06-29T15:54:17.286Z,18.45
2023-06-29T15:56:44.162Z,19.85
2023-06-29T15:59:11.188Z,19.73
2023-06-29T16:01:37.932Z,20.33
2023-06-29T16:04:05.090Z,19.83
2023-06-29T16:06:32.700Z,19.50
2023-06-29T16:09:01.147Z,20.08
2023-06-29T16:11:27.907Z,20.33
2023-06-29T16:13:55.349Z,19.27
2023-06-29T16:16:22.131Z,21.02
2023-06-29T16:18:48.904Z,21.95
2023-06-29T16:21:15.562Z,21.85
2023-06-29T16:23:42.240Z,21.65
2023-06-29T16:26:10.468Z,23.90
2023-06-29T16:28:37.182Z,21.05
2023-06-29T16:31:04.010Z,20.25
2023-06-29T16:33:30.762Z,20.38
2023-06-29T16:35:57.455Z,20.30
2023-06-29T16:38:24.103Z,21.33
2023-06-29T16:40:50.896Z,23.05
2023-06-29T16:43:18.932Z,21.95
2023-06-29T16:45:45.723Z,22.90
2023-06-29T16:48:12.663Z,22.73
2023-06-29T16:50:39.447Z,23.45
2023-06-29T16:53:06.123Z,23.65
2023-06-29T16:55:32.819Z,23.40
2023-06-29T16:57:59.454Z,23.27
2023-06-29T17:00:27.440Z,24.17
2023-06-29T17:02:54.448Z,22.60
2023-06-29T17:05:21.672Z,22.90
2023-06-29T17:07:48.437Z,23.00
2023-06-29T17:10:15.128Z,23.35
2023-06-29T17:12:41.873Z,23.63
2023-06-29T17:15:10.161Z,22.67
2023-06-29T17:17:38.337Z,24.60
2023-06-29T17:20:06.152Z,23.90
2023-06-29T17:22:32.896Z,24.15
2023-06-29T17:24:59.612Z,25.05
2023-06-29T17:27:26.259Z,26.17
2023-06-29T17:29:52.947Z,26.80
2023-06-29T17:32:19.632Z,25.75
2023-06-29T17:34:47.816Z,26.13
2023-06-29T17:37:14.699Z,27.05
2023-06-29T17:39:41.371Z,26.45
2023-06-29T17:42:19.122Z,25.38
2023-06-29T17:44:45.851Z,27.77
2023-06-29T17:47:12.537Z,28.60
2023-06-29T17:49:39.207Z,29.33
2023-06-29T17:52:08.034Z,28.13
2023-06-29T17:54:34.611Z,26.73
2023-06-29T17:57:01.244Z,28.55
2023-06-29T17:59:28.056Z,29.15
2023-06-29T18:01:54.861Z,30.25
2023-06-29T18:04:21.814Z,29.92
2023-06-29T18:06:48.694Z,31.20
2023-06-29T18:09:16.768Z,31.95
2023-06-29T18:11:43.464Z,30.88
2023-06-29T18:14:10.241Z,30.58
2023-06-29T18:16:37.150Z,29.35
2023-06-29T18:19:03.918Z,28.42
2023-06-29T18:21:33.783Z,28.33
2023-06-29T18:24:00.511Z,29.77
2023-06-29T18:26:28.882Z,28.55
2023-06-29T18:28:55.531Z,29.85
2023-06-29T18:31:22.403Z,29.92
2023-06-29T18:33:49.101Z,28.88
2023-06-29T18:36:15.878Z,28.40
2023-06-29T18:38:42.699Z,28.30
2023-06-29T18:41:29.349Z,28.42
2023-06-29T18:43:56.054Z,27.95
2023-06-29T18:46:23.547Z,29.02
2023-06-29T18:48:50.231Z,29.15
2023-06-29T18:51:16.967Z,29.42
2023-06-29T18:53:43.641Z,29.08
2023-06-29T18:56:10.342Z,28.42
2023-06-29T18:58:38.355Z,29.60
2023-06-29T19:01:05.041Z,30.20
2023-06-29T19:03:31.862Z,28.38
2023-06-29T19:05:58.755Z,28.00
2023-06-29T19:08:25.634Z,27.92
2023-06-29T19:10:52.361Z,27.05
2023-06-29T19:13:19.111Z,27.25
2023-06-29T19:15:47.692Z,25.02
2023-06-29T19:18:15.560Z,23.13
2023-06-29T19:20:42.303Z,21.75
2023-06-29T19:23:09.087Z,21.20
2023-06-29T19:25:35.820Z,18.67
2023-06-29T19:28:02.768Z,14.82
2023-06-29T19:30:29.423Z,12.60
2023-06-29T19:32:58.930Z,10.30
2023-06-29T19:35:25.819Z,8.18
2023-06-29T19:37:52.522Z,7.65
2023-06-29T19:40:19.403Z,7.20
2023-06-29T19:42:46.126Z,6.50
2023-06-29T19:45:13.001Z,6.10
2023-06-29T19:47:39.734Z,5.45
2023-06-29T19:50:08.773Z,5.32
2023-06-29T19:52:35.459Z,5.63
2023-06-29T19:55:02.107Z,5.00
2023-06-29T19:57:28.857Z,6.13
2023-06-29T19:59:55.541Z,5.70
2023-06-29T20:02:22.507Z,5.68
2023-06-29T20:04:49.551Z,5.90
2023-06-29T20:07:17.699Z,5.95
2023-06-29T20:09:44.485Z,5.55
2023-06-29T20:12:11.209Z,5.93
2023-06-29T20:14:37.857Z,6.72
2023-06-29T20:17:04.951Z,5.88
2023-06-29T20:19:31.771Z,6.25
2023-06-29T20:21:58.492Z,6.40
2023-06-29T20:24:26.570Z,7.03
2023-06-29T20:26:53.282Z,6.35
2023-06-29T20:29:19.957Z,6.30
2023-06-29T20:31:46.723Z,6.22
2023-06-29T20:34:15.176Z,5.80
2023-06-29T20:36:41.865Z,5.00
2023-06-29T20:39:08.634Z,5.15
2023-06-29T20:41:36.722Z,4.97
2023-06-29T20:44:03.537Z,5.85
2023-06-29T20:46:30.376Z,5.30
2023-06-29T20:48:57.315Z,5.32
2023-06-29T20:51:24.083Z,5.50
2023-06-29T20:53:50.784Z,5.30
2023-06-29T20:56:17.490Z,4.28
2023-06-29T20:58:45.710Z,4.20
2023-06-29T21:03:39.136Z,3.40
2023-06-29T21:06:05.886Z,2.85
2023-06-29T21:08:32.762Z,3.40
2023-06-29T21:10:59.666Z,2.88
2023-06-29T21:13:27.008Z,2.80
2023-06-29T21:15:55.471Z,2.97
2023-06-29T21:18:23.678Z,2.70
2023-06-29T21:20:51.054Z,2.00
2023-06-29T21:23:18.097Z,2.10
2023-06-29T21:25:45.414Z,1.60
2023-06-29T21:28:12.780Z,1.58
2023-06-29T21:30:39.761Z,1.40
2023-06-29T21:33:08.473Z,1.40
2023-06-29T21:35:36.010Z,1.30
2023-06-29T21:38:03.623Z,1.45
2023-06-29T21:40:30.482Z,1.27
2023-06-29T21:42:57.260Z,1.52
2023-06-29T21:45:25.244Z,1.88
2023-06-29T21:47:51.897Z,1.45
2023-06-29T21:50:19.961Z,1.65
2023-06-29T21:52:46.893Z,1.48
2023-06-29T21:55:15.452Z,1.60
2023-06-29T21:57:42.191Z,1.35
2023-06-29T22:00:10.252Z,1.40
2023-06-29T22:02:45.641Z,2.00
2023-06-29T22:05:13.009Z,2.25
2023-06-29T22:07:41.730Z,2.03
2023-06-29T22:10:09.882Z,2.40
2023-06-29T22:12:36.731Z,2.05
2023-06-29T22:15:03.592Z,1.88
2023-06-29T22:17:30.326Z,2.10
2023-06-29T22:20:13.529Z,2.08
2023-06-29T22:22:41.864Z,2.35
2023-06-29T22:25:09.720Z,2.10
2023-06-29T22:27:37.149Z,1.98
2023-06-29T22:30:04.726Z,2.03
2023-06-29T22:32:31.558Z,2.00
2023-06-29T22:34:58.469Z,2.20
2023-06-29T22:37:25.195Z,2.10
2023-06-29T22:39:55.481Z,2.40
2023-06-29T22:42:22.256Z,2.83
2023-06-29T22:44:49.016Z,2.58
2023-06-29T22:47:15.856Z,2.00
2023-06-29T22:49:42.745Z,2.40
2023-06-29T22:52:10.139Z,2.75
2023-06-29T22:54:36.869Z,2.50
2023-06-29T22:57:05.662Z,2.15
2023-06-29T22:59:32.387Z,2.70
2023-06-29T23:01:59.147Z,1.95
2023-06-29T23:04:25.812Z,2.55
2023-06-29T23:06:52.549Z,2.55
2023-06-29T23:09:19.421Z,2.28
2023-06-29T23:11:46.161Z,2.30
2023-06-29T23:14:14.262Z,2.35
2023-06-29T23:16:41.221Z,2.42
2023-06-29T23:19:07.969Z,2.42
2023-06-29T23:21:35.090Z,2.25
2023-06-29T23:24:01.955Z,2.58
2023-06-29T23:26:28.746Z,2.60
2023-06-29T23:28:55.604Z,2.85
2023-06-29T23:31:23.808Z,2.75
2023-06-29T23:33:50.623Z,2.70
2023-06-29T23:36:20.372Z,3.20
2023-06-29T23:38:47.089Z,2.55
2023-06-29T23:41:13.766Z,2.53
2023-06-29T23:43:40.477Z,2.28
2023-06-29T23:46:07.195Z,2.30
2023-06-29T23:48:35.240Z,2.42
2023-06-29T23:51:01.986Z,2.38
2023-06-29T23:53:28.919Z,2.60
2023-06-29T23:55:55.636Z,2.97
2023-06-29T23:58:22.321Z,3.10
